Time;durP1;ratioP1;P1;durP2;ratioP2;P2;SDS_P1;SDS_P2;PMS_P1;PMS_P2;Temp;Humidity;BMP_temperature;BMP_pressure;BME280_temperature;BME280_humidity;BME280_pressure;Samples;Min_cycle;Max_cycle;Signal;HPM_P1;HPM_P2
2023/05/09 00:01:52;;;;;;;;;;;;;;;21.53;52.08;100166.44;7316525;19;130177;-38
2023/05/09 00:04:18;;;;;;;;;;;;;;;21.66;53.47;100161.84;7315961;19;130528;-39
2023/05/09 00:06:43;;;;;;;;;;;;;;;21.79;53.70;100165.16;7314919;19;128878;-40
2023/05/09 00:09:09;;;;;;;;;;;;;;;21.84;53.35;100162.97;7317196;19;129224;-39
2023/05/09 00:11:34;;;;;;;;;;;;;;;21.93;53.65;100169.25;7315040;19;130204;-39
2023/05/09 00:13:59;;;;;;;;;;;;;;;21.98;53.82;100162.63;7314201;19;130266;-41
2023/05/09 00:16:24;;;;;;;;;;;;;;;22.01;53.88;100161.56;7314478;19;128975;-42
2023/05/09 00:18:50;;;;;;;;;;;;;;;22.06;53.66;100158.56;7307731;19;130480;-40
2023/05/09 00:21:15;;;;;;;;;;;;;;;22.09;53.40;100153.91;7315875;19;129037;-38
2023/05/09 00:23:40;;;;;;;;;;;;;;;22.10;53.95;100154.72;7312763;19;129365;-42
2023/05/09 00:26:06;;;;;;;;;;;;;;;22.11;53.52;100143.28;7314992;19;128897;-38
2023/05/09 00:28:31;;;;;;;;;;;;;;;22.10;53.56;100155.53;7310202;19;129210;-39
2023/05/09 00:30:56;;;;;;;;;;;;;;;22.12;53.54;100148.41;7315217;19;130218;-39
2023/05/09 00:33:25;;;;;;;;;;;;;;;22.13;53.54;100147.41;7314190;19;129644;-37
2023/05/09 00:35:50;;;;;;;;;;;;;;;22.14;54.01;100145.66;7315377;19;128823;-37
2023/05/09 00:38:16;;;;;;;;;;;;;;;22.02;53.74;100117.88;7315460;19;129428;-38
2023/05/09 00:40:41;;;;;;;;;;;;;;;22.14;53.42;100133.38;7315337;19;129679;-38
2023/05/09 00:43:06;;;;;;;;;;;;;;;21.61;51.05;100137.84;7314137;19;129645;-39
2023/05/09 00:45:31;;;;;;;;;;;;;;;21.27;50.35;100133.69;7315596;19;128918;-40
2023/05/09 00:47:57;;;;;;;;;;;;;;;21.29;49.88;100134.41;7313577;19;128986;-43
2023/05/09 00:50:25;;;;;;;;;;;;;;;21.54;52.54;100135.84;7315807;19;129321;-42
2023/05/09 00:52:50;;;;;;;;;;;;;;;21.70;53.56;100136.25;7313214;19;130197;-42
2023/05/09 00:55:16;;;;;;;;;;;;;;;21.81;53.54;100142.28;7314175;19;129206;-39
2023/05/09 00:57:42;;;;;;;;;;;;;;;21.88;53.14;100138.19;7312671;19;129144;-40
2023/05/09 01:00:11;;;;;;;;;;;;;;;21.86;53.51;100116.56;7313642;19;129484;-39
2023/05/09 01:02:37;;;;;;;;;;;;;;;22.01;53.62;100126.69;7313512;19;129638;-41
2023/05/09 01:05:03;;;;;;;;;;;;;;;22.05;53.24;100130.72;7314536;19;129161;-42
2023/05/09 01:07:28;;;;;;;;;;;;;;;22.06;53.76;100132.38;7312680;19;129044;-37
2023/05/09 01:10:01;;;;;;;;;;;;;;;21.94;53.41;100103.66;7313686;19;129405;-39
2023/05/09 01:12:34;;;;;;;;;;;;;;;22.10;53.88;100126.75;7314840;19;129376;-39
2023/05/09 01:15:07;;;;;;;;;;;;;;;22.12;53.45;100121.38;7313345;19;129555;-38
2023/05/09 01:17:37;;;;;;;;;;;;;;;22.13;53.32;100123.03;7313549;19;128995;-39
2023/05/09 01:20:09;;;;;;;;;;;;;;;22.12;53.67;100116.97;7313190;19;129796;-37
2023/05/09 01:22:36;;;;;;;;;;;;;;;22.14;53.95;100108.97;7313241;19;131194;-39
2023/05/09 01:25:10;;;;;;;;;;;;;;;22.15;54.00;100115.91;7313886;19;128786;-37
2023/05/09 01:27:38;;;;;;;;;;;;;;;22.17;53.36;100113.94;7311658;19;129179;-39
2023/05/09 01:30:03;;;;;;;;;;;;;;;21.52;51.71;100093.28;7311865;19;130401;-38
2023/05/09 01:32:30;;;;;;;;;;;;;;;21.27;51.12;100104.94;7313123;19;130351;-37
2023/05/09 01:34:58;;;;;;;;;;;;;;;21.29;50.00;100091.72;7313699;19;130119;-39
2023/05/09 01:37:29;;;;;;;;;;;;;;;21.48;52.84;100091.88;7313727;19;128839;-40
2023/05/09 01:39:57;;;;;;;;;;;;;;;21.70;52.88;100095.19;7312090;19;131220;-41
2023/05/09 01:42:24;;;;;;;;;;;;;;;21.80;53.58;100096.13;7313025;19;129165;-40
2023/05/09 01:44:51;;;;;;;;;;;;;;;21.89;53.04;100094.53;7313270;19;129929;-39
2023/05/09 01:47:17;;;;;;;;;;;;;;;21.92;53.61;100100.34;7312150;19;129100;-40
2023/05/09 01:49:43;;;;;;;;;;;;;;;22.01;53.04;100093.50;7312904;19;129241;-39
2023/05/09 01:52:10;;;;;;;;;;;;;;;22.06;53.80;100098.34;7311883;19;130303;-40
2023/05/09 01:54:37;;;;;;;;;;;;;;;22.07;53.48;100092.97;7312499;19;128926;-37
2023/05/09 01:57:03;;;;;;;;;;;;;;;21.96;53.83;100070.28;7312851;19;129017;-40
2023/05/09 01:59:28;;;;;;;;;;;;;;;22.00;53.72;100070.06;7312258;19;130476;-40
2023/05/09 02:01:55;;;;;;;;;;;;;;;22.12;53.82;100089.94;7311206;19;129168;-37
2023/05/09 02:04:20;;;;;;;;;;;;;;;22.14;53.97;100088.03;7312314;19;129370;-39
2023/05/09 02:06:49;;;;;;;;;;;;;;;22.14;53.48;100088.03;7312466;19;129145;-40
2023/05/09 02:09:15;;;;;;;;;;;;;;;22.15;53.84;100092.31;7312160;19;130219;-39
2023/05/09 02:11:40;;;;;;;;;;;;;;;22.14;53.27;100081.00;7312266;19;129151;-37
2023/05/09 02:14:05;;;;;;;;;;;;;;;22.15;53.74;100084.47;7311486;19;129453;-38
2023/05/09 02:16:31;;;;;;;;;;;;;;;21.68;50.74;100085.84;7312267;19;128952;-39
2023/05/09 02:18:56;;;;;;;;;;;;;;;21.23;50.76;100072.16;7309837;19;130157;-39
2023/05/09 02:21:21;;;;;;;;;;;;;;;21.30;50.09;100082.94;7312916;19;129426;-42
2023/05/09 02:23:47;;;;;;;;;;;;;;;21.51;52.65;100081.16;7310984;19;128992;-42
2023/05/09 02:26:12;;;;;;;;;;;;;;;21.71;52.80;100078.56;7311355;19;129322;-42
2023/05/09 02:28:38;;;;;;;;;;;;;;;21.80;53.07;100080.41;7313262;19;129285;-40
2023/05/09 02:31:05;;;;;;;;;;;;;;;21.90;53.61;100081.31;7319348;19;130137;-41
2023/05/09 02:33:32;;;;;;;;;;;;;;;21.95;53.82;100084.34;7317252;19;130226;-41
2023/05/09 02:35:58;;;;;;;;;;;;;;;22.03;53.24;100090.75;7318946;19;129964;-40
2023/05/09 02:38:23;;;;;;;;;;;;;;;22.01;53.67;100077.78;7318508;19;130297;-41
2023/05/09 02:40:49;;;;;;;;;;;;;;;22.08;53.56;100078.91;7318677;19;129481;-41
2023/05/09 02:43:14;;;;;;;;;;;;;;;22.10;53.79;100070.94;7317483;19;128984;-42
2023/05/09 02:45:40;;;;;;;;;;;;;;;22.12;53.87;100074.22;7318430;19;128834;-42
2023/05/09 02:48:05;;;;;;;;;;;;;;;22.14;53.31;100077.56;7316090;19;130219;-37
2023/05/09 02:50:31;;;;;;;;;;;;;;;22.13;53.23;100073.28;7317986;19;131513;-39
2023/05/09 02:52:56;;;;;;;;;;;;;;;22.14;53.44;100072.31;7317381;19;129118;-40
2023/05/09 02:55:21;;;;;;;;;;;;;;;22.03;53.82;100048.84;7317748;19;129049;-38
2023/05/09 02:57:46;;;;;;;;;;;;;;;22.17;53.42;100061.56;7316419;19;130578;-37
2023/05/09 03:00:12;;;;;;;;;;;;;;;22.17;53.80;100064.19;7313916;19;129508;-37
2023/05/09 03:02:37;;;;;;;;;;;;;;;22.17;54.14;100061.56;7316528;19;129552;-39
2023/05/09 03:05:03;;;;;;;;;;;;;;;21.31;50.41;100072.34;7316434;19;129113;-39
2023/05/09 03:07:28;;;;;;;;;;;;;;;21.23;50.19;100064.31;7316059;19;130376;-37
2023/05/09 03:09:54;;;;;;;;;;;;;;;21.39;51.66;100056.84;7317399;19;131116;-39
2023/05/09 03:12:19;;;;;;;;;;;;;;;21.54;53.34;100050.34;7316434;19;129353;-39
2023/05/09 03:14:45;;;;;;;;;;;;;;;21.80;53.07;100072.56;7317275;19;128921;-40
2023/05/09 03:17:11;;;;;;;;;;;;;;;21.88;52.89;100056.22;7316913;19;130322;-39
2023/05/09 03:19:36;;;;;;;;;;;;;;;21.95;53.68;100062.56;7316329;19;129832;-39
2023/05/09 03:22:01;;;;;;;;;;;;;;;22.02;53.21;100057.66;7316623;19;129197;-38
2023/05/09 03:24:27;;;;;;;;;;;;;;;22.05;53.24;100062.66;7315941;19;129248;-41
2023/05/09 03:26:52;;;;;;;;;;;;;;;22.08;52.98;100070.25;7315854;19;129029;-37
2023/05/09 03:29:17;;;;;;;;;;;;;;;22.11;53.22;100062.13;7315038;19;129218;-38
2023/05/09 03:31:43;;;;;;;;;;;;;;;22.11;53.17;100057.72;7315824;19;130037;-40
2023/05/09 03:34:13;;;;;;;;;;;;;;;22.15;53.19;100058.28;7314347;19;129439;-39
2023/05/09 03:36:39;;;;;;;;;;;;;;;22.15;53.80;100053.84;7316225;19;130255;-37
2023/05/09 03:39:04;;;;;;;;;;;;;;;22.16;53.40;100054.69;7316871;19;129657;-40
2023/05/09 03:41:29;;;;;;;;;;;;;;;22.16;53.92;100057.31;7312226;19;129927;-39
2023/05/09 03:43:54;;;;;;;;;;;;;;;22.17;53.38;100056.34;7315918;19;129591;-38
2023/05/09 03:46:20;;;;;;;;;;;;;;;22.17;53.75;100045.84;7315834;19;130254;-38
2023/05/09 03:48:45;;;;;;;;;;;;;;;22.16;53.18;100038.97;7314796;19;129259;-39
2023/05/09 03:51:10;;;;;;;;;;;;;;;21.19;50.77;100015.81;7314808;19;130113;-39
2023/05/09 03:53:35;;;;;;;;;;;;;;;21.22;50.00;100031.25;7315030;19;129065;-40
2023/05/09 03:56:01;;;;;;;;;;;;;;;21.43;51.08;100033.88;7315483;19;129185;-39
2023/05/09 03:58:26;;;;;;;;;;;;;;;21.66;53.39;100045.88;7315804;19;130890;-38
2023/05/09 04:00:52;;;;;;;;;;;;;;;21.79;52.89;100044.75;7317275;19;129127;-39
2023/05/09 04:03:17;;;;;;;;;;;;;;;21.89;53.11;100037.78;7314435;19;128959;-39
2023/05/09 04:05:43;;;;;;;;;;;;;;;21.84;53.68;100024.25;7315379;19;129057;-39
2023/05/09 04:08:08;;;;;;;;;;;;;;;22.02;53.66;100042.78;7313652;19;130335;-36
2023/05/09 04:10:33;;;;;;;;;;;;;;;22.06;53.04;100044.19;7315509;19;129646;-37
2023/05/09 04:12:58;;;;;;;;;;;;;;;22.11;53.21;100035.94;7314657;19;129361;-38
2023/05/09 04:15:24;;;;;;;;;;;;;;;22.10;53.75;100034.28;7315544;19;129897;-39
2023/05/09 04:17:49;;;;;;;;;;;;;;;22.11;53.70;100042.00;7312708;19;131332;-38
2023/05/09 04:20:14;;;;;;;;;;;;;;;22.11;53.59;100046.41;7311946;19;130189;-39
2023/05/09 04:22:40;;;;;;;;;;;;;;;22.13;53.57;100039.25;7312953;19;129298;-39
2023/05/09 04:25:06;;;;;;;;;;;;;;;22.13;53.42;100036.63;7315570;19;130081;-39
2023/05/09 04:27:31;;;;;;;;;;;;;;;22.14;53.31;100041.72;7311724;19;130354;-37
2023/05/09 04:29:56;;;;;;;;;;;;;;;22.16;53.18;100033.75;7314114;19;129012;-39
2023/05/09 04:32:22;;;;;;;;;;;;;;;22.02;53.68;100016.59;7313413;19;129083;-40
2023/05/09 04:34:47;;;;;;;;;;;;;;;22.17;53.98;100032.75;7315091;19;130026;-38
2023/05/09 04:37:12;;;;;;;;;;;;;;;21.85;51.26;100038.97;7314123;19;129285;-38
2023/05/09 04:39:38;;;;;;;;;;;;;;;21.21;50.62;100034.84;7312796;19;129368;-41
2023/05/09 04:42:03;;;;;;;;;;;;;;;21.16;50.65;100031.78;7311629;19;129316;-39
2023/05/09 04:44:29;;;;;;;;;;;;;;;21.35;52.61;100026.69;7314688;19;129612;-39
2023/05/09 04:46:54;;;;;;;;;;;;;;;21.64;53.04;100032.91;7309374;19;132758;-39
2023/05/09 04:49:19;;;;;;;;;;;;;;;21.82;53.34;100026.16;7308480;19;129715;-38
2023/05/09 04:51:45;;;;;;;;;;;;;;;21.91;53.21;100035.81;7308454;19;129541;-38
2023/05/09 04:54:10;;;;;;;;;;;;;;;21.96;53.48;100028.41;7308576;19;131265;-38
2023/05/09 04:56:35;;;;;;;;;;;;;;;22.02;53.78;100031.47;7314523;19;129729;-39
2023/05/09 04:59:00;;;;;;;;;;;;;;;22.05;53.11;100020.75;7312382;19;129166;-38
2023/05/09 05:01:26;;;;;;;;;;;;;;;22.09;53.32;100022.13;7311740;19;128884;-38
2023/05/09 05:03:51;;;;;;;;;;;;;;;22.09;53.45;100022.97;7310747;19;129113;-39
2023/05/09 05:06:16;;;;;;;;;;;;;;;22.13;53.84;100015.69;7308791;19;131245;-39
2023/05/09 05:08:42;;;;;;;;;;;;;;;22.14;53.51;100020.78;7308867;19;131733;-38
2023/05/09 05:11:07;;;;;;;;;;;;;;;22.13;53.60;100015.69;7311181;19;129134;-38
2023/05/09 05:13:32;;;;;;;;;;;;;;;22.12;53.24;100022.69;7305962;19;132082;-38
2023/05/09 05:15:57;;;;;;;;;;;;;;;22.13;53.57;100028.78;7304333;19;130304;-39
2023/05/09 05:18:23;;;;;;;;;;;;;;;22.16;53.40;100018.03;7309820;19;129270;-38
2023/05/09 05:20:48;;;;;;;;;;;;;;;22.16;53.40;100023.25;7311979;19;129009;-37
2023/05/09 05:23:13;;;;;;;;;;;;;;;22.15;53.38;100006.72;7300047;19;131349;-38
2023/05/09 05:25:39;;;;;;;;;;;;;;;21.59;51.00;100022.00;7306738;19;130323;-39
2023/05/09 05:28:04;;;;;;;;;;;;;;;21.29;50.57;100021.94;7309034;19;130502;-37
2023/05/09 05:30:29;;;;;;;;;;;;;;;21.29;50.06;100006.25;7306219;19;130092;-39
2023/05/09 05:32:54;;;;;;;;;;;;;;;21.47;52.45;100012.56;7309199;19;129940;-39
2023/05/09 05:35:23;;;;;;;;;;;;;;;21.66;52.84;100015.31;7311511;19;130210;-39
2023/05/09 05:37:49;;;;;;;;;;;;;;;21.81;52.88;100023.69;7313558;19;130689;-39
2023/05/09 05:40:14;;;;;;;;;;;;;;;21.91;52.91;100024.56;7309191;19;130181;-39
2023/05/09 05:42:39;;;;;;;;;;;;;;;21.96;53.50;100020.56;7313536;19;130220;-39
2023/05/09 05:45:05;;;;;;;;;;;;;;;22.01;52.97;100025.41;7311281;19;130295;-39
2023/05/09 05:47:32;;;;;;;;;;;;;;;22.04;53.78;100016.47;7313030;19;131446;-39
2023/05/09 05:49:57;;;;;;;;;;;;;;;22.07;53.09;100018.81;7307390;19;129066;-39
2023/05/09 05:52:23;;;;;;;;;;;;;;;22.10;53.17;100029.84;7307059;19;130594;-39
2023/05/09 05:54:48;;;;;;;;;;;;;;;22.12;53.17;100022.69;7307761;19;130223;-39
2023/05/09 05:57:13;;;;;;;;;;;;;;;22.13;53.67;100018.28;7312534;19;129787;-39
2023/05/09 05:59:38;;;;;;;;;;;;;;;22.13;53.92;100008.63;7310538;19;129237;-39
2023/05/09 06:02:04;;;;;;;;;;;;;;;22.15;53.23;100003.28;7309855;19;129595;-39
2023/05/09 06:04:29;;;;;;;;;;;;;;;22.15;53.07;100004.09;7312464;19;129608;-39
2023/05/09 06:06:55;;;;;;;;;;;;;;;22.15;53.16;99998.84;7310084;19;129424;-39
2023/05/09 06:09:20;;;;;;;;;;;;;;;22.16;53.67;99997.06;7308915;19;128966;-36
2023/05/09 06:11:45;;;;;;;;;;;;;;;22.16;53.30;99992.69;7310246;19;130445;-39
2023/05/09 06:14:10;;;;;;;;;;;;;;;21.30;50.93;99992.25;7310184;19;129701;-38
2023/05/09 06:16:36;;;;;;;;;;;;;;;21.15;50.56;99984.84;7308753;19;129996;-38
2023/05/09 06:19:01;;;;;;;;;;;;;;;21.14;50.15;99986.63;7306534;19;129629;-40
2023/05/09 06:21:26;;;;;;;;;;;;;;;21.55;53.13;99986.59;7310250;19;130976;-39
2023/05/09 06:23:51;;;;;;;;;;;;;;;21.76;53.01;99990.06;7309059;19;129177;-39
2023/05/09 06:26:17;;;;;;;;;;;;;;;21.84;53.12;99971.06;7311802;19;128952;-39
2023/05/09 06:28:42;;;;;;;;;;;;;;;21.95;53.59;99979.66;7308823;19;130117;-39
2023/05/09 06:31:07;;;;;;;;;;;;;;;21.87;53.03;99945.44;7309717;19;130461;-39
2023/05/09 06:33:32;;;;;;;;;;;;;;;22.04;53.63;99977.19;7304257;19;131736;-40
2023/05/09 06:35:58;;;;;;;;;;;;;;;22.07;53.03;99976.91;7308099;19;130105;-39
2023/05/09 06:38:23;;;;;;;;;;;;;;;22.07;53.17;99966.44;7311235;19;129206;-39
2023/05/09 06:40:48;;;;;;;;;;;;;;;22.12;53.10;99974.72;7310432;19;129835;-39
2023/05/09 06:43:14;;;;;;;;;;;;;;;22.12;53.70;99962.47;7310325;19;130409;-40
2023/05/09 06:45:39;;;;;;;;;;;;;;;22.13;53.33;99961.50;7309914;19;129219;-39
2023/05/09 06:48:04;;;;;;;;;;;;;;;22.14;53.16;99963.16;7310724;19;129421;-36
2023/05/09 06:50:30;;;;;;;;;;;;;;;22.12;53.27;99959.84;7310483;19;129453;-39
2023/05/09 06:52:55;;;;;;;;;;;;;;;22.13;53.75;99960.69;7310355;19;129276;-39
2023/05/09 06:55:20;;;;;;;;;;;;;;;22.14;53.57;99964.94;7310550;19;129243;-39
2023/05/09 06:57:45;;;;;;;;;;;;;;;22.15;54.01;99948.28;7310685;19;130291;-39
2023/05/09 07:00:11;;;;;;;;;;;;;;;21.63;50.72;99944.94;7310629;19;129414;-40
2023/05/09 07:02:40;;;;;;;;;;;;;;;21.15;50.68;99949.06;7309028;19;130945;-39
2023/05/09 07:05:05;;;;;;;;;;;;;;;21.09;50.69;99941.72;7310954;19;129995;-39
2023/05/09 07:07:30;;;;;;;;;;;;;;;21.37;52.76;99935.81;7311285;19;128964;-39
2023/05/09 07:09:56;;;;;;;;;;;;;;;21.66;53.51;99935.97;7310700;19;129558;-39
2023/05/09 07:12:21;;;;;;;;;;;;;;;21.79;53.35;99937.44;7310745;19;130300;-39
2023/05/09 07:14:46;;;;;;;;;;;;;;;21.89;53.17;99933.06;7314030;19;128990;-39
2023/05/09 07:17:11;;;;;;;;;;;;;;;21.97;53.49;99927.16;7316634;19;129170;-39
2023/05/09 07:19:37;;;;;;;;;;;;;;;22.00;53.15;99931.31;7318622;19;130249;-39
2023/05/09 07:22:02;;;;;;;;;;;;;;;22.02;53.49;99927.56;7316576;19;130454;-37
2023/05/09 07:24:27;;;;;;;;;;;;;;;22.08;53.32;99931.47;7316957;19;129702;-39
2023/05/09 07:26:52;;;;;;;;;;;;;;;22.09;53.83;99930.47;7312228;19;128909;-39
2023/05/09 07:29:19;;;;;;;;;;;;;;;22.08;53.28;99931.47;7311481;19;130489;-39
2023/05/09 07:31:44;;;;;;;;;;;;;;;22.11;53.06;99915.47;7317042;19;130675;-39
2023/05/09 07:34:09;;;;;;;;;;;;;;;22.10;53.34;99919.06;7315579;19;129274;-43
2023/05/09 07:36:36;;;;;;;;;;;;;;;22.11;53.55;99920.72;7314674;19;129061;-37
2023/05/09 07:39:01;;;;;;;;;;;;;;;22.04;53.30;99893.41;7316741;19;130211;-39
2023/05/09 07:41:26;;;;;;;;;;;;;;;22.12;53.28;99907.47;7316032;19;130361;-39
2023/05/09 07:43:52;;;;;;;;;;;;;;;22.13;53.26;99898.66;7315174;19;130251;-38
2023/05/09 07:46:17;;;;;;;;;;;;;;;22.13;53.24;99888.16;7317187;19;129893;-38
2023/05/09 07:48:42;;;;;;;;;;;;;;;21.40;50.99;99896.34;7315969;19;130199;-39
2023/05/09 07:51:07;;;;;;;;;;;;;;;21.09;50.72;99894.66;7315795;19;132199;-39
2023/05/09 07:53:33;;;;;;;;;;;;;;;21.11;50.27;99887.53;7314487;19;128994;-39
2023/05/09 07:55:58;;;;;;;;;;;;;;;21.41;53.04;99889.31;7313959;19;129136;-39
2023/05/09 07:58:23;;;;;;;;;;;;;;;21.64;53.17;99881.16;7316437;19;129465;-39
2023/05/09 08:00:48;;;;;;;;;;;;;;;21.79;53.55;99882.47;7314926;19;131071;-39
2023/05/09 08:03:13;;;;;;;;;;;;;;;21.87;53.73;99868.72;7316399;19;129244;-39
2023/05/09 08:05:39;;;;;;;;;;;;;;;21.94;53.11;99873.28;7315216;19;129057;-39
2023/05/09 08:08:04;;;;;;;;;;;;;;;22.00;53.42;99877.13;7315555;19;129637;-39
2023/05/09 08:10:31;;;;;;;;;;;;;;;22.04;53.60;99872.47;7314108;19;130270;-39
2023/05/09 08:12:56;;;;;;;;;;;;;;;22.03;53.90;99865.56;7316752;19;129364;-40
2023/05/09 08:15:21;;;;;;;;;;;;;;;22.09;53.77;99871.09;7315318;19;128898;-38
2023/05/09 08:17:47;;;;;;;;;;;;;;;22.10;53.72;99882.41;7315828;19;129769;-38
2023/05/09 08:20:12;;;;;;;;;;;;;;;22.09;53.73;99862.41;7314611;19;129224;-38
2023/05/09 08:22:40;;;;;;;;;;;;;;;22.09;53.17;99865.84;7314446;19;129098;-38
2023/05/09 08:25:06;;;;;;;;;;;;;;;22.09;53.83;99860.63;7312509;19;128949;-39
2023/05/09 08:27:31;;;;;;;;;;;;;;;22.12;53.82;99862.13;7313024;19;130131;-40
2023/05/09 08:29:56;;;;;;;;;;;;;;;22.12;53.21;99859.50;7312659;19;130429;-40
2023/05/09 08:32:22;;;;;;;;;;;;;;;22.11;53.81;99852.63;7314078;19;129650;-39
2023/05/09 08:34:47;;;;;;;;;;;;;;;21.65;51.41;99851.41;7316218;19;128980;-39
2023/05/09 08:37:12;;;;;;;;;;;;;;;21.13;50.51;99843.78;7313145;19;129779;-39
2023/05/09 08:39:37;;;;;;;;;;;;;;;21.10;50.22;99854.50;7315079;19;130498;-39
2023/05/09 08:42:03;;;;;;;;;;;;;;;21.39;53.06;99842.38;7315088;19;129107;-37
2023/05/09 08:44:28;;;;;;;;;;;;;;;21.61;53.22;99850.03;7315929;19;129306;-38
2023/05/09 08:46:57;;;;;;;;;;;;;;;21.77;53.60;99844.31;7312799;19;129032;-39
2023/05/09 08:49:23;;;;;;;;;;;;;;;21.86;53.51;99844.34;7312961;19;130325;-39
2023/05/09 08:51:48;;;;;;;;;;;;;;;21.91;53.33;99822.97;7314991;19;130205;-39
2023/05/09 08:54:14;;;;;;;;;;;;;;;21.97;53.46;99827.66;7312596;19;130438;-38
2023/05/09 08:56:40;;;;;;;;;;;;;;;22.00;53.09;99834.44;7312923;19;130178;-40
2023/05/09 08:59:05;;;;;;;;;;;;;;;22.03;53.85;99828.94;7314184;19;129667;-38
2023/05/09 09:01:32;;;;;;;;;;;;;;;22.06;53.49;99823.41;7309304;19;129766;-39
2023/05/09 09:03:58;;;;;;;;;;;;;;;22.06;53.56;99818.16;7311810;19;129842;-39
2023/05/09 09:06:24;;;;;;;;;;;;;;;22.06;53.15;99815.56;7313342;19;130134;-38
2023/05/09 09:08:51;;;;;;;;;;;;;;;22.06;53.35;99819.00;7309706;19;130636;-39
2023/05/09 09:11:17;;;;;;;;;;;;;;;22.08;53.94;99817.06;7315895;19;130651;-40
2023/05/09 09:13:42;;;;;;;;;;;;;;;22.07;54.11;99815.41;7311257;19;129223;-39
2023/05/09 09:16:10;;;;;;;;;;;;;;;22.09;53.72;99812.66;7311382;19;129263;-39
2023/05/09 09:18:35;;;;;;;;;;;;;;;22.09;53.44;99821.34;7314729;19;130461;-39
2023/05/09 09:21:08;;;;;;;;;;;;;;;21.95;52.47;99814.72;7313036;19;131255;-39
2023/05/09 09:23:34;;;;;;;;;;;;;;;21.15;50.92;99815.72;7312727;19;129872;-39
2023/05/09 09:26:00;;;;;;;;;;;;;;;21.10;50.90;99817.06;7310000;19;129907;-39
2023/05/09 09:28:26;;;;;;;;;;;;;;;21.28;52.63;99813.72;7310249;19;131436;-40
2023/05/09 09:30:51;;;;;;;;;;;;;;;21.55;53.62;99816.53;7314768;19;128862;-39
2023/05/09 09:33:23;;;;;;;;;;;;;;;21.72;53.14;99800.19;7310644;19;129576;-39
2023/05/09 09:35:50;;;;;;;;;;;;;;;21.80;53.91;99802.16;7313204;19;129319;-39
2023/05/09 09:38:18;;;;;;;;;;;;;;;21.91;53.17;99800.22;7310438;19;130530;-39
2023/05/09 09:40:50;;;;;;;;;;;;;;;21.83;52.94;99784.38;7314957;19;129519;-40
2023/05/09 09:43:15;;;;;;;;;;;;;;;22.00;53.39;99810.88;7309915;19;129398;-40
2023/05/09 09:45:40;;;;;;;;;;;;;;;22.02;53.33;99795.84;7309266;19;129570;-39
2023/05/09 09:48:06;;;;;;;;;;;;;;;22.06;53.08;99802.47;7312589;19;129136;-39
2023/05/09 09:50:31;;;;;;;;;;;;;;;22.06;53.45;99816.38;7308865;19;130021;-39
2023/05/09 09:52:57;;;;;;;;;;;;;;;22.06;53.28;99792.00;7312348;19;129238;-39
2023/05/09 09:55:23;;;;;;;;;;;;;;;22.07;53.89;99791.84;7311771;19;129063;-40
2023/05/09 09:57:48;;;;;;;;;;;;;;;22.09;53.63;99787.31;7311225;19;130346;-39
2023/05/09 10:00:15;;;;;;;;;;;;;;;21.97;53.95;99762.22;7309835;19;129484;-38
2023/05/09 10:02:50;;;;;;;;;;;;;;;22.09;53.23;99776.00;7311648;19;128790;-39
2023/05/09 10:05:21;;;;;;;;;;;;;;;22.10;53.36;99788.16;7312262;19;130075;-41
2023/05/09 10:07:52;;;;;;;;;;;;;;;21.63;51.98;99787.09;7311703;19;130289;-40
2023/05/09 10:10:17;;;;;;;;;;;;;;;21.16;50.85;99790.41;7309820;19;129198;-39
2023/05/09 10:12:42;;;;;;;;;;;;;;;21.17;50.25;99784.22;7312467;19;129572;-40
2023/05/09 10:15:09;;;;;;;;;;;;;;;21.40;53.21;99783.06;7311662;19;129062;-39
2023/05/09 10:17:34;;;;;;;;;;;;;;;21.60;53.33;99767.25;7312005;19;130908;-39
2023/05/09 10:20:04;;;;;;;;;;;;;;;21.75;53.19;99773.75;7303919;19;130178;-39
2023/05/09 10:22:31;;;;;;;;;;;;;;;21.81;53.46;99782.88;7311829;19;128798;-39
2023/05/09 10:25:01;;;;;;;;;;;;;;;21.90;53.78;99761.09;7311155;19;130613;-39
2023/05/09 10:27:27;;;;;;;;;;;;;;;21.95;53.22;99754.50;7312716;19;130283;-39
2023/05/09 10:30:10;;;;;;;;;;;;;;;21.96;53.59;99750.09;7309593;19;129887;-39
2023/05/09 10:32:41;;;;;;;;;;;;;;;22.02;53.30;99753.94;7311139;19;129254;-37
2023/05/09 10:35:09;;;;;;;;;;;;;;;22.04;53.14;99752.03;7310842;19;129085;-39
2023/05/09 10:37:35;;;;;;;;;;;;;;;21.90;53.96;99725.31;7310818;19;130506;-39
2023/05/09 10:40:01;;;;;;;;;;;;;;;22.04;53.90;99747.63;7310470;19;129397;-38
2023/05/09 10:42:27;;;;;;;;;;;;;;;22.04;54.02;99745.00;7311277;19;129126;-39
2023/05/09 10:44:53;;;;;;;;;;;;;;;22.04;53.53;99726.69;7311135;19;129213;-37
2023/05/09 10:47:19;;;;;;;;;;;;;;;22.06;53.76;99730.00;7310495;19;130189;-39
2023/05/09 10:49:44;;;;;;;;;;;;;;;22.07;54.07;99728.19;7313631;19;128966;-39
2023/05/09 10:52:10;;;;;;;;;;;;;;;22.09;53.56;99734.09;7317790;19;130170;-39
2023/05/09 10:54:36;;;;;;;;;;;;;;;21.29;50.51;99716.00;7317689;19;131088;-39
2023/05/09 10:57:02;;;;;;;;;;;;;;;20.94;51.16;99692.06;7317438;19;130195;-37
2023/05/09 10:59:34;;;;;;;;;;;;;;;21.11;50.23;99707.16;7315673;19;129166;-40
2023/05/09 11:02:01;;;;;;;;;;;;;;;21.45;53.62;99718.09;7318817;19;128787;-38
2023/05/09 11:04:27;;;;;;;;;;;;;;;21.65;53.15;99704.88;7317951;19;129862;-39
2023/05/09 11:06:52;;;;;;;;;;;;;;;21.77;53.43;99703.81;7315791;19;130234;-39
2023/05/09 11:09:37;;;;;;;;;;;;;;;21.83;53.40;99692.78;7316552;19;129031;-39
2023/05/09 11:12:05;;;;;;;;;;;;;;;21.87;54.09;99694.16;7318401;19;130010;-39
2023/05/09 11:14:31;;;;;;;;;;;;;;;21.92;53.45;99681.50;7315610;19;130229;-39
2023/05/09 11:17:00;;;;;;;;;;;;;;;21.95;53.66;99681.22;7316072;19;129155;-40
2023/05/09 11:19:32;;;;;;;;;;;;;;;21.88;53.79;99655.75;7317928;19;128942;-39
2023/05/09 11:22:09;;;;;;;;;;;;;;;21.87;53.36;99652.28;7316965;19;129103;-39
2023/05/09 11:24:36;;;;;;;;;;;;;;;22.01;53.18;99679.00;7315532;19;130850;-38
2023/05/09 11:27:04;;;;;;;;;;;;;;;22.03;53.44;99677.06;7317988;19;129799;-39
2023/05/09 11:29:41;;;;;;;;;;;;;;;22.05;53.27;99662.06;7316004;19;128909;-39
2023/05/09 11:32:07;;;;;;;;;;;;;;;21.91;53.35;99637.13;7317852;19;129291;-39
2023/05/09 11:34:32;;;;;;;;;;;;;;;22.06;54.08;99666.31;7317823;19;130090;-40
2023/05/09 11:37:11;;;;;;;;;;;;;;;22.05;53.77;99657.63;7317317;19;130980;-38
2023/05/09 11:39:55;;;;;;;;;;;;;;;21.68;51.69;99652.25;7316183;19;129905;-38
2023/05/09 11:42:21;;;;;;;;;;;;;;;20.94;51.14;99616.28;7317355;19;128891;-39
2023/05/09 11:44:47;;;;;;;;;;;;;;;21.00;50.64;99621.00;7317029;19;129820;-37
2023/05/09 11:47:12;;;;;;;;;;;;;;;21.27;53.03;99618.53;7315274;19;130294;-40
2023/05/09 11:49:41;;;;;;;;;;;;;;;21.59;53.22;99636.56;7314876;19;129277;-39
2023/05/09 11:52:06;;;;;;;;;;;;;;;21.72;53.13;99634.50;7316794;19;129596;-39
2023/05/09 11:54:32;;;;;;;;;;;;;;;21.81;53.25;99615.38;7316922;19;130092;-38
2023/05/09 11:56:59;;;;;;;;;;;;;;;21.85;53.22;99625.44;7316960;19;130376;-40
2023/05/09 11:59:24;;;;;;;;;;;;;;;21.89;53.26;99618.97;7310797;19;128838;-39
2023/05/09 12:01:49;;;;;;;;;;;;;;;21.92;53.68;99602.97;7310870;19;130487;-37
2023/05/09 12:04:15;;;;;;;;;;;;;;;21.80;53.49;99577.91;7314819;19;130145;-39
2023/05/09 12:06:45;;;;;;;;;;;;;;;21.91;53.61;99595.25;7315616;19;130574;-37
2023/05/09 12:09:11;;;;;;;;;;;;;;;21.98;53.33;99604.22;7315208;19;128838;-39
2023/05/09 12:11:37;;;;;;;;;;;;;;;22.01;54.03;99595.22;7316735;19;128980;-39
2023/05/09 12:14:02;;;;;;;;;;;;;;;22.00;53.76;99601.44;7314496;19;131608;-39
2023/05/09 12:16:27;;;;;;;;;;;;;;;22.02;53.61;99581.16;7313776;19;130353;-40
2023/05/09 12:18:53;;;;;;;;;;;;;;;22.01;53.45;99582.97;7315658;19;128737;-40
2023/05/09 12:21:19;;;;;;;;;;;;;;;22.06;54.08;99598.25;7316610;19;128981;-37
2023/05/09 12:23:45;;;;;;;;;;;;;;;22.07;53.68;99586.78;7314371;19;130124;-39
2023/05/09 12:26:11;;;;;;;;;;;;;;;22.06;53.92;99599.09;7315081;19;130319;-39
2023/05/09 12:28:36;;;;;;;;;;;;;;;21.22;50.72;99585.94;7315394;19;128905;-37